Time;durP1;ratioP1;P1;durP2;ratioP2;P2;SDS_P1;SDS_P2;PMS_P1;PMS_P2;Temp;Humidity;BMP_temperature;BMP_pressure;BME280_temperature;BME280_humidity;BME280_pressure;Samples;Min_cycle;Max_cycle;Signal;HPM_P1;HPM_P2
2022/10/23 00:01:41;;;;;;;7.10;3.80;;;;;;;;;;4961358;28;20357;-88
2022/10/23 00:04:12;;;;;;;8.20;4.20;;;;;;;;;;4969049;28;20057;-87
2022/10/23 00:06:38;;;;;;;5.53;3.67;;;;;;;;;;4952206;28;20124;-87
2022/10/23 00:09:05;;;;;;;10.25;4.82;;;;;;;;;;4954405;28;20058;-87
2022/10/23 00:11:31;;;;;;;9.90;4.18;;;;;;;;;;4953142;28;20026;-87
2022/10/23 00:13:59;;;;;;;7.78;4.07;;;;;;;;;;4979849;28;20366;-87
2022/10/23 00:16:25;;;;;;;7.93;4.20;;;;;;;;;;4946338;28;20042;-87
2022/10/23 00:18:51;;;;;;;7.43;4.22;;;;;;;;;;4949132;28;20033;-87
2022/10/23 00:21:16;;;;;;;5.60;3.75;;;;;;;;;;4970486;28;20484;-86
2022/10/23 00:23:42;;;;;;;6.55;4.28;;;;;;;;;;4946579;28;20485;-87
2022/10/23 00:26:14;;;;;;;7.13;4.20;;;;;;;;;;4952725;28;20426;-87
2022/10/23 00:28:43;;;;;;;9.43;4.43;;;;;;;;;;4953906;28;20027;-87
2022/10/23 00:31:09;;;;;;;7.80;3.90;;;;;;;;;;4957714;28;20042;-87
2022/10/23 00:33:35;;;;;;;11.68;4.97;;;;;;;;;;4970450;28;20406;-89
2022/10/23 00:36:04;;;;;;;7.20;4.50;;;;;;;;;;4952509;28;20039;-89
2022/10/23 00:38:29;;;;;;;8.35;4.40;;;;;;;;;;4953147;28;20092;-88
2022/10/23 00:40:55;;;;;;;6.88;4.07;;;;;;;;;;4960988;28;20490;-88
2022/10/23 00:43:25;;;;;;;6.57;3.85;;;;;;;;;;4946072;28;20182;-87
2022/10/23 00:45:50;;;;;;;7.15;4.30;;;;;;;;;;4952376;28;20049;-87
2022/10/23 00:48:16;;;;;;;5.97;4.00;;;;;;;;;;4955594;28;20508;-87
2022/10/23 00:50:42;;;;;;;9.30;4.88;;;;;;;;;;4952164;28;20085;-87
2022/10/23 00:53:09;;;;;;;6.72;4.55;;;;;;;;;;4954351;28;20497;-87
2022/10/23 00:55:35;;;;;;;6.80;4.40;;;;;;;;;;4964349;28;20034;-86
2022/10/23 00:58:03;;;;;;;7.63;4.63;;;;;;;;;;4952121;28;20057;-87
2022/10/23 01:00:39;;;;;;;7.93;4.50;;;;;;;;;;4944371;28;20105;-87
2022/10/23 01:03:04;;;;;;;8.25;4.22;;;;;;;;;;4951472;28;20042;-86
2022/10/23 01:05:45;;;;;;;8.50;4.32;;;;;;;;;;4959928;28;20090;-87
2022/10/23 01:08:48;;;;;;;6.82;4.28;;;;;;;;;;4976789;28;20093;-87
2022/10/23 01:11:24;;;;;;;6.10;4.07;;;;;;;;;;4906937;29;20194;-87
2022/10/23 01:14:21;;;;;;;6.40;4.15;;;;;;;;;;4952171;28;20034;-87
2022/10/23 01:17:09;;;;;;;7.68;4.55;;;;;;;;;;4955187;28;20521;-87
2022/10/23 01:19:52;;;;;;;;;;;;;;;;;;4965798;28;20035;-87
2022/10/23 01:22:34;;;;;;;6.85;4.28;;;;;;;;;;4957702;28;20401;-86
2022/10/23 01:25:04;;;;;;;6.20;4.40;;;;;;;;;;4963271;28;20089;-87
2022/10/23 01:27:35;;;;;;;7.75;4.25;;;;;;;;;;4961803;28;20138;-86
2022/10/23 01:30:10;;;;;;;7.13;4.28;;;;;;;;;;4955810;28;20031;-87
2022/10/23 01:33:01;;;;;;;7.75;4.65;;;;;;;;;;4961376;28;20043;-87
2022/10/23 01:35:31;;;;;;;6.07;3.95;;;;;;;;;;4945058;28;20071;-87
2022/10/23 01:38:00;;;;;;;6.70;4.05;;;;;;;;;;4961284;28;20054;-87
2022/10/23 01:40:33;;;;;;;7.72;4.22;;;;;;;;;;4947427;28;20561;-87
2022/10/23 01:43:04;;;;;;;6.55;3.88;;;;;;;;;;4955591;28;20059;-87
2022/10/23 01:45:35;;;;;;;6.90;3.90;;;;;;;;;;4971383;28;20090;-86
2022/10/23 01:48:01;;;;;;;6.57;4.20;;;;;;;;;;4949226;28;20565;-88
2022/10/23 01:50:27;;;;;;;7.13;4.28;;;;;;;;;;4959259;28;20032;-88
2022/10/23 01:52:52;;;;;;;7.20;4.25;;;;;;;;;;4945435;28;20027;-88
2022/10/23 01:55:18;;;;;;;7.93;4.18;;;;;;;;;;4938988;28;20530;-86
2022/10/23 01:57:44;;;;;;;8.02;4.32;;;;;;;;;;4941683;28;20154;-86
2022/10/23 02:00:14;;;;;;;7.60;4.13;;;;;;;;;;4959298;28;20413;-87
2022/10/23 02:02:41;;;;;;;7.65;4.40;;;;;;;;;;4941398;28;20039;-87
2022/10/23 02:05:30;;;;;;;9.07;4.57;;;;;;;;;;4954456;28;20071;-86
2022/10/23 02:07:56;;;;;;;6.40;4.30;;;;;;;;;;4970256;28;20494;-87
2022/10/23 02:10:30;;;;;;;6.63;3.92;;;;;;;;;;4952475;28;20043;-88
2022/10/23 02:13:05;;;;;;;10.70;4.35;;;;;;;;;;4959080;28;20122;-88
2022/10/23 02:19:03;;;;;;;7.28;3.90;;;;;;;;;;4965817;28;20046;-87
2022/10/23 02:21:49;;;;;;;9.32;4.40;;;;;;;;;;4946367;28;20461;-87
2022/10/23 02:24:17;;;;;;;6.80;4.15;;;;;;;;;;4952997;28;20046;-86
2022/10/23 02:26:51;;;;;;;7.03;4.43;;;;;;;;;;4971877;28;20039;-87
2022/10/23 02:29:32;;;;;;;6.47;3.70;;;;;;;;;;4965390;28;20458;-86
2022/10/23 02:31:57;;;;;;;9.80;4.50;;;;;;;;;;4974292;28;20123;-87
2022/10/23 02:34:22;;;;;;;8.48;4.40;;;;;;;;;;4946448;28;20130;-87
2022/10/23 02:36:48;;;;;;;6.28;4.15;;;;;;;;;;4963544;28;20046;-86
2022/10/23 02:39:13;;;;;;;8.07;4.45;;;;;;;;;;4951214;28;20074;-87
2022/10/23 02:42:16;;;;;;;7.32;4.53;;;;;;;;;;4953838;28;20042;-87
2022/10/23 02:45:11;;;;;;;6.72;4.60;;;;;;;;;;4960713;28;20047;-88
2022/10/23 02:47:58;;;;;;;8.20;4.53;;;;;;;;;;4942345;28;20073;-88
2022/10/23 02:50:28;;;;;;;6.57;4.30;;;;;;;;;;4958768;28;20154;-88
2022/10/23 02:52:57;;;;;;;7.18;4.72;;;;;;;;;;4963207;28;20050;-88
2022/10/23 02:55:37;;;;;;;8.18;4.78;;;;;;;;;;4943839;28;20042;-88
2022/10/23 02:58:33;;;;;;;8.20;4.50;;;;;;;;;;4979598;28;20371;-88
2022/10/23 03:01:05;;;;;;;7.68;4.40;;;;;;;;;;4958961;28;20082;-87
2022/10/23 03:03:36;;;;;;;7.18;4.60;;;;;;;;;;4969359;28;20066;-87
2022/10/23 03:06:02;;;;;;;7.05;4.70;;;;;;;;;;4948816;28;20092;-87
2022/10/23 03:08:28;;;;;;;7.50;4.50;;;;;;;;;;4971571;28;20034;-87
2022/10/23 03:10:53;;;;;;;10.57;5.43;;;;;;;;;;4956413;28;20057;-88
2022/10/23 03:13:19;;;;;;;8.35;4.75;;;;;;;;;;4953074;28;20034;-88
2022/10/23 03:15:44;;;;;;;10.10;5.13;;;;;;;;;;4966740;28;20039;-88
2022/10/23 03:18:10;;;;;;;9.93;5.53;;;;;;;;;;4943342;28;20509;-88
2022/10/23 03:20:35;;;;;;;9.23;4.38;;;;;;;;;;4947367;28;20398;-87
2022/10/23 03:23:01;;;;;;;8.60;4.68;;;;;;;;;;4975644;28;20027;-88
2022/10/23 03:25:26;;;;;;;8.30;4.82;;;;;;;;;;4952731;28;20539;-88
2022/10/23 03:27:52;;;;;;;9.18;4.93;;;;;;;;;;4970167;28;20034;-88
2022/10/23 03:30:17;;;;;;;7.68;4.82;;;;;;;;;;4955010;28;20073;-88
2022/10/23 03:32:43;;;;;;;9.85;5.30;;;;;;;;;;4962650;28;20401;-87
2022/10/23 03:35:08;;;;;;;10.65;5.10;;;;;;;;;;4950608;28;20053;-88
2022/10/23 03:37:34;;;;;;;9.10;4.72;;;;;;;;;;4954005;28;20537;-88
2022/10/23 03:39:59;;;;;;;7.93;4.55;;;;;;;;;;4946610;28;20125;-88
2022/10/23 03:42:24;;;;;;;9.27;5.20;;;;;;;;;;4953315;28;20035;-88
2022/10/23 03:44:50;;;;;;;10.65;5.45;;;;;;;;;;4952987;28;20047;-88
2022/10/23 03:47:15;;;;;;;11.38;4.85;;;;;;;;;;4945074;28;20054;-87
2022/10/23 03:49:41;;;;;;;8.40;4.85;;;;;;;;;;4952121;28;20026;-88
2022/10/23 03:52:07;;;;;;;9.30;4.68;;;;;;;;;;4952469;28;20042;-87
2022/10/23 03:54:33;;;;;;;7.65;5.03;;;;;;;;;;4945277;28;20042;-87
2022/10/23 03:56:59;;;;;;;7.70;4.82;;;;;;;;;;4958881;28;20042;-87
2022/10/23 03:59:24;;;;;;;9.40;4.57;;;;;;;;;;4943287;28;20442;-88
2022/10/23 04:01:50;;;;;;;6.97;4.68;;;;;;;;;;4955252;28;20043;-89
2022/10/23 04:04:15;;;;;;;7.90;5.13;;;;;;;;;;4957215;28;20098;-87
2022/10/23 04:06:41;;;;;;;8.25;4.95;;;;;;;;;;4952167;28;20118;-87
2022/10/23 04:09:07;;;;;;;10.82;4.85;;;;;;;;;;4951398;28;20413;-88
2022/10/23 04:11:32;;;;;;;7.43;4.78;;;;;;;;;;4942164;28;20078;-87
2022/10/23 04:13:58;;;;;;;6.72;4.25;;;;;;;;;;4951275;28;20058;-88
2022/10/23 04:16:24;;;;;;;8.00;5.05;;;;;;;;;;4967009;28;20078;-87
2022/10/23 04:18:49;;;;;;;7.18;4.50;;;;;;;;;;4951162;28;20054;-87
2022/10/23 04:21:15;;;;;;;9.10;5.03;;;;;;;;;;4955776;28;20042;-88
2022/10/23 04:23:41;;;;;;;9.13;5.22;;;;;;;;;;4944760;28;20375;-88
2022/10/23 04:26:06;;;;;;;11.70;5.63;;;;;;;;;;4953962;28;20066;-87
2022/10/23 04:28:32;;;;;;;7.28;4.65;;;;;;;;;;4951524;28;20042;-88
2022/10/23 04:30:59;;;;;;;7.45;4.88;;;;;;;;;;4960267;28;20038;-88
2022/10/23 04:33:25;;;;;;;6.90;4.35;;;;;;;;;;4951293;28;20038;-88
2022/10/23 04:35:50;;;;;;;9.55;4.95;;;;;;;;;;4950207;28;20046;-88
2022/10/23 04:38:16;;;;;;;8.48;4.80;;;;;;;;;;4982912;28;20038;-88
2022/10/23 04:40:41;;;;;;;8.93;4.78;;;;;;;;;;4946693;28;20042;-88
2022/10/23 04:43:07;;;;;;;8.77;4.68;;;;;;;;;;4952572;28;20058;-87
2022/10/23 04:45:34;;;;;;;7.57;4.82;;;;;;;;;;4950042;28;20058;-88
2022/10/23 04:48:00;;;;;;;9.77;4.88;;;;;;;;;;4943641;28;20402;-88
2022/10/23 04:50:25;;;;;;;7.50;4.35;;;;;;;;;;4950848;28;20043;-88
2022/10/23 04:52:55;;;;;;;9.73;4.88;;;;;;;;;;4947531;28;20046;-88
2022/10/23 04:55:21;;;;;;;8.07;4.70;;;;;;;;;;4959247;28;20085;-87
2022/10/23 04:57:46;;;;;;;6.38;4.22;;;;;;;;;;4967798;28;20062;-87
2022/10/23 05:00:14;;;;;;;7.65;4.93;;;;;;;;;;4962378;28;20101;-88
2022/10/23 05:02:40;;;;;;;7.65;4.65;;;;;;;;;;4949928;28;20034;-87
2022/10/23 05:05:06;;;;;;;9.52;4.78;;;;;;;;;;4947251;28;20058;-88
2022/10/23 05:07:32;;;;;;;11.65;5.35;;;;;;;;;;4947945;28;20047;-88
2022/10/23 05:09:58;;;;;;;8.32;4.65;;;;;;;;;;4944659;28;20026;-88
2022/10/23 05:12:34;;;;;;;9.23;4.82;;;;;;;;;;4949772;28;20042;-88
2022/10/23 05:15:00;;;;;;;10.10;5.18;;;;;;;;;;4947306;28;20141;-88
2022/10/23 05:17:32;;;;;;;9.48;5.03;;;;;;;;;;4951336;28;20042;-89
2022/10/23 05:19:58;;;;;;;8.38;4.65;;;;;;;;;;4953010;28;20100;-89
2022/10/23 05:22:26;;;;;;;9.93;4.93;;;;;;;;;;4940355;28;20082;-89
2022/10/23 05:24:52;;;;;;;7.85;5.05;;;;;;;;;;4960707;28;20077;-88
2022/10/23 05:27:18;;;;;;;9.02;4.82;;;;;;;;;;4942509;28;20035;-89
2022/10/23 05:29:43;;;;;;;10.75;4.97;;;;;;;;;;4951781;28;20360;-88
2022/10/23 05:32:09;;;;;;;8.55;4.90;;;;;;;;;;4950686;28;20049;-89
2022/10/23 05:34:35;;;;;;;8.57;5.07;;;;;;;;;;4956442;28;20035;-89
2022/10/23 05:37:02;;;;;;;8.82;4.93;;;;;;;;;;4940523;28;20082;-89
2022/10/23 05:39:28;;;;;;;8.65;5.03;;;;;;;;;;4941307;28;20448;-88
2022/10/23 05:41:53;;;;;;;8.02;4.75;;;;;;;;;;4963779;28;20066;-88
2022/10/23 05:44:23;;;;;;;7.43;4.47;;;;;;;;;;4962396;28;20126;-88
2022/10/23 05:46:48;;;;;;;7.43;4.05;;;;;;;;;;4948583;28;20030;-88
2022/10/23 05:49:14;;;;;;;9.07;5.20;;;;;;;;;;4950408;28;20529;-85
2022/10/23 05:51:40;;;;;;;6.95;4.25;;;;;;;;;;4945842;28;20045;-86
2022/10/23 05:54:07;;;;;;;11.50;4.60;;;;;;;;;;4930862;28;20050;-86
2022/10/23 05:56:37;;;;;;;7.47;4.55;;;;;;;;;;4956700;28;20047;-85
2022/10/23 05:59:03;;;;;;;10.80;4.65;;;;;;;;;;4957806;28;20453;-84
2022/10/23 06:01:29;;;;;;;10.52;4.55;;;;;;;;;;4940208;28;20470;-87
2022/10/23 06:03:54;;;;;;;10.20;5.05;;;;;;;;;;4938442;28;20050;-86
2022/10/23 06:06:19;;;;;;;7.75;4.50;;;;;;;;;;4946278;28;20407;-87
2022/10/23 06:08:45;;;;;;;7.53;4.30;;;;;;;;;;4940568;28;20103;-87
2022/10/23 06:11:17;;;;;;;8.40;5.32;;;;;;;;;;4947685;28;20043;-86
2022/10/23 06:13:43;;;;;;;8.40;4.47;;;;;;;;;;4956885;28;20039;-86
2022/10/23 06:16:14;;;;;;;7.63;4.70;;;;;;;;;;4941702;28;20046;-90
2022/10/23 06:18:40;;;;;;;9.18;5.15;;;;;;;;;;4954527;28;20042;-90
2022/10/23 06:21:06;;;;;;;8.52;4.68;;;;;;;;;;4942318;28;20054;-89
2022/10/23 06:23:33;;;;;;;8.88;4.72;;;;;;;;;;4961969;28;20037;-89
2022/10/23 06:25:59;;;;;;;8.77;5.10;;;;;;;;;;4962220;28;20535;-89
2022/10/23 06:28:27;;;;;;;8.65;4.70;;;;;;;;;;4963770;28;20035;-91
2022/10/23 06:30:55;;;;;;;9.85;4.82;;;;;;;;;;4948903;28;20134;-89
2022/10/23 06:33:21;;;;;;;6.55;4.25;;;;;;;;;;4942201;28;20051;-89
2022/10/23 06:35:47;;;;;;;7.85;4.63;;;;;;;;;;4953642;28;20040;-89
2022/10/23 06:38:13;;;;;;;10.07;5.90;;;;;;;;;;4942499;28;20065;-89
2022/10/23 06:40:38;;;;;;;8.90;5.35;;;;;;;;;;4941553;28;20523;-89
2022/10/23 06:43:04;;;;;;;7.55;4.30;;;;;;;;;;4957894;28;20050;-88
2022/10/23 06:45:33;;;;;;;8.80;5.28;;;;;;;;;;4940309;28;20108;-89
2022/10/23 06:47:59;;;;;;;9.60;5.05;;;;;;;;;;4946550;28;20366;-88
2022/10/23 06:50:24;;;;;;;8.80;4.90;;;;;;;;;;4963985;28;20034;-85
2022/10/23 06:52:52;;;;;;;9.48;5.20;;;;;;;;;;4959606;28;20375;-85
2022/10/23 06:55:18;;;;;;;9.73;5.47;;;;;;;;;;4962750;28;20372;-88
2022/10/23 06:57:44;;;;;;;8.75;5.80;;;;;;;;;;4967415;28;20096;-89
2022/10/23 07:00:10;;;;;;;9.18;5.70;;;;;;;;;;4949563;28;20120;-90
2022/10/23 07:02:41;;;;;;;9.60;6.32;;;;;;;;;;4949358;28;20316;-90
2022/10/23 07:05:06;;;;;;;8.32;5.68;;;;;;;;;;4943678;28;20046;-89
2022/10/23 07:07:34;;;;;;;10.45;5.93;;;;;;;;;;4949756;28;20046;-90
2022/10/23 07:10:14;;;;;;;13.52;6.45;;;;;;;;;;4974576;28;20042;-90
2022/10/23 07:12:39;;;;;;;10.55;6.25;;;;;;;;;;4952004;28;20423;-89
2022/10/23 07:15:05;;;;;;;8.70;5.95;;;;;;;;;;4950072;28;20138;-90
2022/10/23 07:17:41;;;;;;;9.48;5.93;;;;;;;;;;4935477;28;20047;-89
2022/10/23 07:20:07;;;;;;;9.02;5.75;;;;;;;;;;4932757;28;21362;-90
2022/10/23 07:22:37;;;;;;;9.57;5.93;;;;;;;;;;4959015;28;20126;-90
2022/10/23 07:25:02;;;;;;;8.20;5.60;;;;;;;;;;4943501;28;20114;-89
2022/10/23 07:27:34;;;;;;;7.70;5.05;;;;;;;;;;4949690;28;20058;-89
2022/10/23 07:30:00;;;;;;;7.93;5.13;;;;;;;;;;4964137;28;20403;-89
2022/10/23 07:32:28;;;;;;;12.77;5.78;;;;;;;;;;4928549;28;20099;-91
2022/10/23 07:34:54;;;;;;;8.95;5.07;;;;;;;;;;4951879;28;20137;-90
2022/10/23 07:37:19;;;;;;;8.70;5.05;;;;;;;;;;4944465;28;20515;-89
2022/10/23 07:39:45;;;;;;;10.15;5.25;;;;;;;;;;4962765;28;20039;-89
2022/10/23 07:42:13;;;;;;;7.57;4.65;;;;;;;;;;4940833;28;20049;-90
2022/10/23 07:44:38;;;;;;;;;;;;;;;;;;4934217;28;20612;-90
2022/10/23 07:47:04;;;;;;;8.90;4.80;;;;;;;;;;4959684;28;20016;-90
2022/10/23 07:49:39;;;;;;;7.60;4.53;;;;;;;;;;4962063;28;20046;-90
2022/10/23 08:00:11;;;;;;;;;;;;;;;;;;;;;
2022/10/23 08:10:40;;;;;;;;;;;;;;;;;;;;;
2022/10/23 08:16:12;;;;;;;5.65;2.95;;;;;;;;;;4873565;29;20489;-85
2022/10/23 08:18:39;;;;;;;5.47;3.40;;;;;;;;;;4843618;29;20104;-84
2022/10/23 08:21:07;;;;;;;5.07;3.10;;;;;;;;;;4845468;29;20683;-85
2022/10/23 08:23:32;;;;;;;;;;;;;;;;;;4844801;29;20073;-85
2022/10/23 08:25:59;;;;;;;5.43;3.13;;;;;;;;;;4845678;29;19954;-84
2022/10/23 08:28:26;;;;;;;6.10;2.88;;;;;;;;;;4862898;29;20303;-85
2022/10/23 08:30:52;;;;;;;4.75;3.05;;;;;;;;;;4843087;29;20386;-84
2022/10/23 08:33:17;;;;;;;5.80;2.83;;;;;;;;;;4864823;29;20096;-84
2022/10/23 08:35:43;;;;;;;7.38;3.00;;;;;;;;;;4879893;29;20500;-84
2022/10/23 08:38:09;;;;;;;5.75;3.15;;;;;;;;;;4868844;29;20105;-85
2022/10/23 08:40:35;;;;;;;4.75;2.80;;;;;;;;;;4889259;29;20067;-84
2022/10/23 08:43:05;;;;;;;5.28;2.70;;;;;;;;;;4882600;29;20508;-82
2022/10/23 08:45:41;;;;;;;4.88;2.40;;;;;;;;;;4867898;28;20032;-82
2022/10/23 08:48:34;;;;;;;5.95;2.38;;;;;;;;;;4909043;29;20047;-81
2022/10/23 08:51:09;;;;;;;4.05;2.45;;;;;;;;;;4892355;28;20035;-82
2022/10/23 08:53:56;;;;;;;5.13;3.00;;;;;;;;;;4958322;28;20035;-82
2022/10/23 08:56:32;;;;;;;4.45;2.30;;;;;;;;;;4953063;28;20085;-86
2022/10/23 08:59:06;;;;;;;4.90;2.30;;;;;;;;;;4962192;28;20565;-87
2022/10/23 09:01:41;;;;;;;5.03;2.33;;;;;;;;;;4965585;28;20471;-86
2022/10/23 09:04:10;;;;;;;6.53;2.30;;;;;;;;;;4948707;28;20045;-87
2022/10/23 09:06:58;;;;;;;5.88;2.22;;;;;;;;;;4953140;28;20061;-87
2022/10/23 09:09:44;;;;;;;5.10;2.10;;;;;;;;;;4960626;28;20433;-86
2022/10/23 09:12:16;;;;;;;4.93;2.10;;;;;;;;;;4977180;28;20526;-87
2022/10/23 09:15:00;;;;;;;3.97;2.00;;;;;;;;;;4952185;28;20089;-87
2022/10/23 09:17:27;;;;;;;4.20;2.10;;;;;;;;;;4961602;28;20125;-86
2022/10/23 09:19:59;;;;;;;4.53;2.40;;;;;;;;;;4978909;28;20366;-87
2022/10/23 09:22:26;;;;;;;3.42;1.80;;;;;;;;;;4957031;28;20041;-85
2022/10/23 09:24:51;;;;;;;5.27;2.20;;;;;;;;;;4944993;28;20031;-86
2022/10/23 09:27:17;;;;;;;3.35;1.88;;;;;;;;;;4955753;28;20344;-86
2022/10/23 09:29:52;;;;;;;3.95;2.25;;;;;;;;;;4948955;28;20465;-86
2022/10/23 09:32:19;;;;;;;3.75;1.73;;;;;;;;;;4961740;28;20030;-86
2022/10/23 09:34:52;;;;;;;3.90;2.20;;;;;;;;;;4950712;28;20494;-85
2022/10/23 09:37:23;;;;;;;4.28;1.83;;;;;;;;;;4950377;28;20045;-86
2022/10/23 09:39:48;;;;;;;4.70;1.90;;;;;;;;;;4961362;28;20900;-84
2022/10/23 09:42:22;;;;;;;3.53;2.00;;;;;;;;;;4950364;28;20123;-84
2022/10/23 09:44:50;;;;;;;5.13;2.10;;;;;;;;;;4946445;28;20032;-84
2022/10/23 09:47:19;;;;;;;5.00;1.80;;;;;;;;;;4964988;28;20046;-84
2022/10/23 09:49:50;;;;;;;4.22;1.98;;;;;;;;;;4963572;28;20075;-84
2022/10/23 09:52:16;;;;;;;6.57;2.00;;;;;;;;;;4943380;28;20619;-84
2022/10/23 09:54:52;;;;;;;3.85;1.88;;;;;;;;;;4968384;28;20058;-85
2022/10/23 09:57:29;;;;;;;5.07;1.90;;;;;;;;;;4941949;28;20118;-83
2022/10/23 09:59:56;;;;;;;5.17;1.47;;;;;;;;;;4943581;28;20462;-85
2022/10/23 10:02:35;;;;;;;3.22;1.52;;;;;;;;;;4943106;28;20310;-89
2022/10/23 10:05:24;;;;;;;3.88;1.60;;;;;;;;;;4946049;28;20374;-85
2022/10/23 10:08:04;;;;;;;4.72;1.83;;;;;;;;;;4949374;28;20101;-88
2022/10/23 10:10:51;;;;;;;3.72;1.70;;;;;;;;;;4943262;28;20050;-88
2022/10/23 10:13:31;;;;;;;5.05;2.13;;;;;;;;;;4947932;28;20044;-91
2022/10/23 10:16:07;;;;;;;3.38;1.50;;;;;;;;;;4960666;28;20412;-89
2022/10/23 10:18:41;;;;;;;3.92;1.77;;;;;;;;;;4943185;28;20042;-82
2022/10/23 10:21:24;;;;;;;6.32;1.92;;;;;;;;;;4951966;28;20030;-83
2022/10/23 10:23:59;;;;;;;4.88;1.70;;;;;;;;;;4965399;28;20038;-88
2022/10/23 10:26:27;;;;;;;2.33;1.17;;;;;;;;;;4950978;28;20451;-87
2022/10/23 10:29:24;;;;;;;4.13;1.63;;;;;;;;;;4965617;28;20256;-87
2022/10/23 10:32:21;;;;;;;2.88;1.23;;;;;;;;;;4966778;28;20639;-87
2022/10/23 10:35:02;;;;;;;4.72;1.63;;;;;;;;;;4926645;28;20054;-89
2022/10/23 10:38:07;;;;;;;3.63;1.30;;;;;;;;;;4956141;28;20552;-87
2022/10/23 10:40:42;;;;;;;2.83;1.23;;;;;;;;;;4979753;28;20038;-88
2022/10/23 10:43:22;;;;;;;3.50;1.55;;;;;;;;;;4946286;28;20026;-88
2022/10/23 10:45:55;;;;;;;4.05;1.60;;;;;;;;;;4964859;28;20060;-86
2022/10/23 10:48:43;;;;;;;2.90;1.10;;;;;;;;;;4955359;28;20038;-87
2022/10/23 10:51:11;;;;;;;2.65;1.15;;;;;;;;;;4968337;28;20035;-86
2022/10/23 10:53:51;;;;;;;2.60;1.10;;;;;;;;;;4960936;28;20034;-86
2022/10/23 10:56:18;;;;;;;2.90;1.10;;;;;;;;;;4981282;28;20569;-86
2022/10/23 10:58:52;;;;;;;4.28;1.10;;;;;;;;;;4958632;28;20041;-86
2022/10/23 11:01:27;;;;;;;3.17;1.25;;;;;;;;;;4944518;28;20034;-86
2022/10/23 11:04:17;;;;;;;1.80;0.63;;;;;;;;;;4951920;28;20115;-87
2022/10/23 11:06:44;;;;;;;2.88;1.00;;;;;;;;;;4970392;28;20137;-86
2022/10/23 11:09:16;;;;;;;5.05;1.45;;;;;;;;;;4964209;28;20081;-86
2022/10/23 11:11:42;;;;;;;2.17;0.88;;;;;;;;;;4951818;28;20488;-86
2022/10/23 11:14:33;;;;;;;3.40;0.88;;;;;;;;;;4955255;28;20035;-86
2022/10/23 11:17:09;;;;;;;3.10;1.02;;;;;;;;;;4950143;28;20046;-87
2022/10/23 11:19:58;;;;;;;2.20;0.70;;;;;;;;;;4960591;28;20034;-86
2022/10/23 11:22:23;;;;;;;2.05;0.80;;;;;;;;;;4952169;28;20482;-87
2022/10/23 11:25:20;;;;;;;2.47;0.80;;;;;;;;;;4983064;28;20130;-86
2022/10/23 11:28:00;;;;;;;2.85;0.90;;;;;;;;;;4961620;28;20030;-86
2022/10/23 11:30:37;;;;;;;2.90;0.70;;;;;;;;;;4948996;28;20034;-86
2022/10/23 11:33:22;;;;;;;4.35;0.98;;;;;;;;;;4968808;28;20595;-85
2022/10/23 11:36:03;;;;;;;2.65;0.80;;;;;;;;;;4962555;28;20101;-86
2022/10/23 11:38:38;;;;;;;2.45;0.80;;;;;;;;;;4963462;28;20045;-85
2022/10/23 11:41:25;;;;;;;3.63;1.20;;;;;;;;;;4945219;28;20047;-85
2022/10/23 11:44:02;;;;;;;2.20;0.70;;;;;;;;;;4951305;28;20402;-85
2022/10/23 11:46:30;;;;;;;2.83;1.02;;;;;;;;;;4963377;28;20296;-86
2022/10/23 11:48:56;;;;;;;1.92;0.55;;;;;;;;;;4962324;28;20069;-86
2022/10/23 11:51:30;;;;;;;2.80;0.80;;;;;;;;;;4959212;28;20121;-85
2022/10/23 11:54:13;;;;;;;1.77;0.70;;;;;;;;;;4956156;28;20129;-86
2022/10/23 11:57:06;;;;;;;2.40;0.80;;;;;;;;;;4980358;28;20575;-86
2022/10/23 11:59:44;;;;;;;2.67;0.73;;;;;;;;;;4972279;28;20128;-86
2022/10/23 12:02:37;;;;;;;5.20;0.75;;;;;;;;;;4959838;28;20109;-86
2022/10/23 12:05:08;;;;;;;2.92;0.80;;;;;;;;;;4953086;28;20042;-86
2022/10/23 12:07:38;;;;;;;2.05;0.60;;;;;;;;;;4946923;28;24602;-86
2022/10/23 12:10:22;;;;;;;4.32;1.08;;;;;;;;;;4953606;28;20070;-85
2022/10/23 12:12:57;;;;;;;2.67;0.70;;;;;;;;;;4961490;28;20173;-86
2022/10/23 12:15:25;;;;;;;2.72;0.80;;;;;;;;;;4932640;28;20038;-84
2022/10/23 12:17:53;;;;;;;3.33;0.75;;;;;;;;;;4948406;28;20031;-84
2022/10/23 12:20:26;;;;;;;2.22;0.60;;;;;;;;;;4943070;28;20089;-85
2022/10/23 12:23:12;;;;;;;5.65;1.10;;;;;;;;;;4963937;28;20046;-85
2022/10/23 12:26:15;;;;;;;3.50;0.80;;;;;;;;;;4958362;28;20038;-84
2022/10/23 12:28:51;;;;;;;2.30;0.68;;;;;;;;;;4969373;28;20040;-85
2022/10/23 12:31:45;;;;;;;2.80;0.65;;;;;;;;;;4944618;28;20134;-84
2022/10/23 12:34:38;;;;;;;3.60;0.88;;;;;;;;;;4952635;28;20034;-84
2022/10/23 12:37:09;;;;;;;2.45;0.80;;;;;;;;;;4958679;28;20414;-84
2022/10/23 12:39:37;;;;;;;3.92;1.17;;;;;;;;;;4961639;28;20042;-84
2022/10/23 12:42:04;;;;;;;2.55;0.90;;;;;;;;;;4951801;28;20918;-84
2022/10/23 12:44:29;;;;;;;2.03;0.70;;;;;;;;;;4951117;28;20488;-84
2022/10/23 12:46:57;;;;;;;3.42;0.77;;;;;;;;;;4965407;28;20113;-84
2022/10/23 12:49:25;;;;;;;2.22;0.70;;;;;;;;;;4948568;28;20465;-84
2022/10/23 12:51:55;;;;;;;2.13;0.60;;;;;;;;;;4950019;28;20101;-84
2022/10/23 12:54:21;;;;;;;2.17;0.70;;;;;;;;;;4957044;28;20042;-84
2022/10/23 12:56:47;;;;;;;2.55;0.70;;;;;;;;;;4953502;28;20043;-84
2022/10/23 12:59:22;;;;;;;2.63;0.70;;;;;;;;;;4968897;28;20472;-84
2022/10/23 13:01:48;;;;;;;3.05;0.75;;;;;;;;;;4952490;28;20034;-84
2022/10/23 13:04:28;;;;;;;1.60;0.52;;;;;;;;;;4979656;28;20634;-84
2022/10/23 13:06:55;;;;;;;3.90;0.70;;;;;;;;;;4956517;28;20047;-84
2022/10/23 13:09:20;;;;;;;3.45;0.77;;;;;;;;;;4961401;28;20401;-86
2022/10/23 13:11:45;;;;;;;2.97;0.80;;;;;;;;;;4977073;28;20128;-84
2022/10/23 13:14:28;;;;;;;4.35;0.75;;;;;;;;;;4946277;28;20537;-84
2022/10/23 13:17:08;;;;;;;3.95;0.80;;;;;;;;;;4945180;28;20387;-85
2022/10/23 13:19:34;;;;;;;2.15;0.70;;;;;;;;;;4975950;28;20030;-84
2022/10/23 13:22:03;;;;;;;2.13;0.70;;;;;;;;;;4950087;28;20034;-84
2022/10/23 13:24:29;;;;;;;2.88;0.70;;;;;;;;;;4960338;28;20049;-84
2022/10/23 13:26:56;;;;;;;4.72;0.77;;;;;;;;;;4949443;28;20540;-84
2022/10/23 13:29:31;;;;;;;2.40;0.68;;;;;;;;;;4957755;28;20063;-83
2022/10/23 13:31:56;;;;;;;2.78;0.77;;;;;;;;;;4950900;28;20170;-86
2022/10/23 13:34:24;;;;;;;2.58;0.80;;;;;;;;;;4958242;28;20080;-85
2022/10/23 13:36:53;;;;;;;3.50;0.93;;;;;;;;;;4958206;28;20034;-85
2022/10/23 13:39:24;;;;;;;3.67;0.80;;;;;;;;;;4960516;28;20394;-86
2022/10/23 13:41:50;;;;;;;3.35;0.90;;;;;;;;;;4941629;28;20034;-85
2022/10/23 13:44:22;;;;;;;2.00;0.85;;;;;;;;;;4935241;28;20113;-83
2022/10/23 13:46:48;;;;;;;2.30;0.90;;;;;;;;;;4939993;28;20045;-85
2022/10/23 13:49:14;;;;;;;3.30;0.80;;;;;;;;;;4944720;28;20035;-84
2022/10/23 13:51:51;;;;;;;2.40;1.00;;;;;;;;;;4951687;28;20034;-85
2022/10/23 13:54:20;;;;;;;2.70;0.93;;;;;;;;;;4952175;28;20358;-85
2022/10/23 13:56:51;;;;;;;4.10;1.08;;;;;;;;;;4960991;28;20043;-86
2022/10/23 13:59:17;;;;;;;3.50;0.98;;;;;;;;;;4952941;28;20034;-87
2022/10/23 14:01:45;;;;;;;2.85;1.10;;;;;;;;;;4939319;28;20062;-87
2022/10/23 14:04:12;;;;;;;4.40;1.23;;;;;;;;;;4968851;28;20037;-85
2022/10/23 14:06:38;;;;;;;3.53;1.42;;;;;;;;;;4947404;28;20401;-85
2022/10/23 14:09:05;;;;;;;2.83;1.20;;;;;;;;;;4965851;28;20041;-82
2022/10/23 14:11:31;;;;;;;4.63;1.88;;;;;;;;;;4941131;28;20027;-82
2022/10/23 14:13:56;;;;;;;4.38;1.20;;;;;;;;;;4962848;28;20353;-81
2022/10/23 14:16:22;;;;;;;3.88;1.15;;;;;;;;;;4955587;28;20351;-81
2022/10/23 14:18:47;;;;;;;3.20;1.20;;;;;;;;;;4954756;28;20052;-82
2022/10/23 14:21:15;;;;;;;4.22;1.73;;;;;;;;;;4955320;28;20031;-82
2022/10/23 14:23:41;;;;;;;4.40;1.35;;;;;;;;;;4947964;28;20528;-81
2022/10/23 14:26:09;;;;;;;3.35;1.10;;;;;;;;;;4949924;28;20074;-81
2022/10/23 14:28:34;;;;;;;4.32;1.13;;;;;;;;;;4966064;28;20037;-81
2022/10/23 14:31:08;;;;;;;4.10;1.20;;;;;;;;;;4950177;28;20495;-82
2022/10/23 14:33:34;;;;;;;4.38;1.10;;;;;;;;;;4971566;28;20492;-82
2022/10/23 14:35:59;;;;;;;3.72;1.20;;;;;;;;;;4965929;28;20038;-81
2022/10/23 14:38:25;;;;;;;3.08;1.23;;;;;;;;;;4955221;28;20034;-82
2022/10/23 14:40:50;;;;;;;4.35;1.10;;;;;;;;;;4960540;28;20093;-81
2022/10/23 14:43:15;;;;;;;3.00;1.10;;;;;;;;;;4967813;28;20402;-81
2022/10/23 14:45:41;;;;;;;2.75;1.10;;;;;;;;;;4962620;28;20061;-81
2022/10/23 14:48:09;;;;;;;3.65;1.20;;;;;;;;;;4955402;28;20038;-82
2022/10/23 14:50:36;;;;;;;5.00;0.95;;;;;;;;;;4968114;28;20040;-81
2022/10/23 14:53:02;;;;;;;3.60;1.02;;;;;;;;;;4954579;28;20030;-82
2022/10/23 14:55:27;;;;;;;2.90;1.15;;;;;;;;;;4954271;28;20038;-81
2022/10/23 14:57:54;;;;;;;3.00;1.17;;;;;;;;;;4963850;28;20077;-81
2022/10/23 15:00:19;;;;;;;3.53;1.23;;;;;;;;;;4955170;28;20034;-82
2022/10/23 15:02:44;;;;;;;3.58;1.10;;;;;;;;;;4968925;28;20109;-84
2022/10/23 15:05:10;;;;;;;4.20;1.05;;;;;;;;;;4979168;28;20045;-82
2022/10/23 15:07:35;;;;;;;3.90;1.23;;;;;;;;;;4952515;28;20035;-81
2022/10/23 15:10:02;;;;;;;3.15;0.95;;;;;;;;;;4965718;28;20114;-82
2022/10/23 15:12:27;;;;;;;2.63;1.10;;;;;;;;;;4948382;28;20034;-82
2022/10/23 15:14:53;;;;;;;4.88;1.58;;;;;;;;;;4955075;28;20035;-82
2022/10/23 15:17:18;;;;;;;5.28;1.30;;;;;;;;;;4953816;28;20053;-81
2022/10/23 15:19:43;;;;;;;3.15;1.20;;;;;;;;;;4958233;28;20101;-83
2022/10/23 15:22:09;;;;;;;3.97;1.23;;;;;;;;;;4963347;28;20517;-81
2022/10/23 15:24:34;;;;;;;5.55;1.40;;;;;;;;;;4960633;28;20042;-82
2022/10/23 15:27:00;;;;;;;2.67;1.20;;;;;;;;;;4963109;28;20042;-81
2022/10/23 15:29:29;;;;;;;5.32;1.27;;;;;;;;;;4953328;28;20041;-81